sensor_id;sensor_type;location;lat;lon;timestamp;P1;durP1;ratioP1;P2;durP2;ratioP2
26086;SDS011;13851;43.434;28.338;2022-12-11T00:01:54;41.42;;;23.40;;
26086;SDS011;13851;43.434;28.338;2022-12-11T00:04:19;37.05;;;23.52;;
26086;SDS011;13851;43.434;28.338;2022-12-11T00:06:45;41.17;;;21.48;;
26086;SDS011;13851;43.434;28.338;2022-12-11T00:09:14;36.63;;;21.27;;
26086;SDS011;13851;43.434;28.338;2022-12-11T00:11:45;33.50;;;21.35;;
26086;SDS011;13851;43.434;28.338;2022-12-11T00:14:12;37.17;;;21.15;;
26086;SDS011;13851;43.434;28.338;2022-12-11T00:16:38;33.42;;;21.23;;
26086;SDS011;13851;43.434;28.338;2022-12-11T00:19:04;34.08;;;20.83;;
26086;SDS011;13851;43.434;28.338;2022-12-11T00:21:29;35.55;;;20.92;;
26086;SDS011;13851;43.434;28.338;2022-12-11T00:23:55;39.70;;;23.38;;
26086;SDS011;13851;43.434;28.338;2022-12-11T00:26:23;42.25;;;24.70;;
26086;SDS011;13851;43.434;28.338;2022-12-11T00:28:51;37.55;;;24.13;;
26086;SDS011;13851;43.434;28.338;2022-12-11T00:31:18;39.78;;;24.25;;
26086;SDS011;13851;43.434;28.338;2022-12-11T00:33:44;41.60;;;23.38;;
26086;SDS011;13851;43.434;28.338;2022-12-11T00:36:22;37.50;;;23.70;;
26086;SDS011;13851;43.434;28.338;2022-12-11T00:38:49;42.88;;;24.33;;
26086;SDS011;13851;43.434;28.338;2022-12-11T00:41:16;36.47;;;23.25;;
26086;SDS011;13851;43.434;28.338;2022-12-11T00:43:42;39.65;;;23.38;;
26086;SDS011;13851;43.434;28.338;2022-12-11T00:46:08;32.80;;;21.38;;
26086;SDS011;13851;43.434;28.338;2022-12-11T00:48:34;35.00;;;22.27;;
26086;SDS011;13851;43.434;28.338;2022-12-11T00:50:59;30.05;;;19.52;;
26086;SDS011;13851;43.434;28.338;2022-12-11T00:53:25;32.05;;;21.33;;
26086;SDS011;13851;43.434;28.338;2022-12-11T00:55:50;31.45;;;20.25;;
26086;SDS011;13851;43.434;28.338;2022-12-11T00:58:16;32.63;;;19.67;;
26086;SDS011;13851;43.434;28.338;2022-12-11T01:00:41;35.40;;;21.27;;
26086;SDS011;13851;43.434;28.338;2022-12-11T01:03:08;31.98;;;19.20;;
26086;SDS011;13851;43.434;28.338;2022-12-11T01:05:34;35.92;;;21.90;;
26086;SDS011;13851;43.434;28.338;2022-12-11T01:08:01;32.70;;;20.45;;
26086;SDS011;13851;43.434;28.338;2022-12-11T01:10:27;31.25;;;20.50;;
26086;SDS011;13851;43.434;28.338;2022-12-11T01:12:56;32.50;;;21.02;;
26086;SDS011;13851;43.434;28.338;2022-12-11T01:15:27;30.50;;;19.17;;
26086;SDS011;13851;43.434;28.338;2022-12-11T01:17:54;35.63;;;21.08;;
26086;SDS011;13851;43.434;28.338;2022-12-11T01:20:20;32.55;;;19.85;;
26086;SDS011;13851;43.434;28.338;2022-12-11T01:22:47;33.40;;;20.23;;
26086;SDS011;13851;43.434;28.338;2022-12-11T01:25:15;39.33;;;21.77;;
26086;SDS011;13851;43.434;28.338;2022-12-11T01:27:41;36.35;;;21.50;;
26086;SDS011;13851;43.434;28.338;2022-12-11T01:30:07;30.83;;;19.70;;
26086;SDS011;13851;43.434;28.338;2022-12-11T01:32:39;33.90;;;20.77;;
26086;SDS011;13851;43.434;28.338;2022-12-11T01:35:05;37.90;;;20.55;;
26086;SDS011;13851;43.434;28.338;2022-12-11T01:37:32;46.15;;;21.05;;
26086;SDS011;13851;43.434;28.338;2022-12-11T01:39:58;39.38;;;23.33;;
26086;SDS011;13851;43.434;28.338;2022-12-11T01:42:25;37.17;;;22.77;;
26086;SDS011;13851;43.434;28.338;2022-12-11T01:47:17;40.05;;;22.73;;
26086;SDS011;13851;43.434;28.338;2022-12-11T01:49:42;36.40;;;23.95;;
26086;SDS011;13851;43.434;28.338;2022-12-11T01:52:10;45.80;;;21.90;;
26086;SDS011;13851;43.434;28.338;2022-12-11T01:54:40;41.70;;;23.25;;
26086;SDS011;13851;43.434;28.338;2022-12-11T01:57:08;35.05;;;20.67;;
26086;SDS011;13851;43.434;28.338;2022-12-11T01:59:40;38.33;;;21.00;;
26086;SDS011;13851;43.434;28.338;2022-12-11T02:05:07;37.30;;;20.42;;
26086;SDS011;13851;43.434;28.338;2022-12-11T02:07:38;38.67;;;21.45;;
26086;SDS011;13851;43.434;28.338;2022-12-11T02:10:08;43.20;;;21.73;;
26086;SDS011;13851;43.434;28.338;2022-12-11T02:12:56;36.80;;;21.45;;
26086;SDS011;13851;43.434;28.338;2022-12-11T02:15:36;38.85;;;20.85;;
26086;SDS011;13851;43.434;28.338;2022-12-11T02:23:23;34.22;;;19.90;;
26086;SDS011;13851;43.434;28.338;2022-12-11T02:29:22;34.10;;;18.58;;
26086;SDS011;13851;43.434;28.338;2022-12-11T02:32:13;31.25;;;18.73;;
26086;SDS011;13851;43.434;28.338;2022-12-11T02:37:12;35.80;;;18.67;;
26086;SDS011;13851;43.434;28.338;2022-12-11T02:39:42;31.58;;;18.52;;
26086;SDS011;13851;43.434;28.338;2022-12-11T02:42:11;34.60;;;19.02;;
26086;SDS011;13851;43.434;28.338;2022-12-11T02:44:40;31.33;;;18.02;;
26086;SDS011;13851;43.434;28.338;2022-12-11T02:47:07;34.90;;;18.63;;
26086;SDS011;13851;43.434;28.338;2022-12-11T02:49:37;37.72;;;20.60;;
26086;SDS011;13851;43.434;28.338;2022-12-11T02:52:06;35.08;;;20.13;;
26086;SDS011;13851;43.434;28.338;2022-12-11T02:54:35;37.97;;;19.67;;
26086;SDS011;13851;43.434;28.338;2022-12-11T02:57:19;38.55;;;20.05;;
26086;SDS011;13851;43.434;28.338;2022-12-11T03:00:08;34.97;;;19.90;;
26086;SDS011;13851;43.434;28.338;2022-12-11T03:02:35;35.08;;;19.05;;
26086;SDS011;13851;43.434;28.338;2022-12-11T03:05:02;31.23;;;19.25;;
26086;SDS011;13851;43.434;28.338;2022-12-11T03:07:28;40.75;;;20.40;;
26086;SDS011;13851;43.434;28.338;2022-12-11T03:09:58;42.85;;;21.23;;
26086;SDS011;13851;43.434;28.338;2022-12-11T03:12:28;39.83;;;20.60;;
26086;SDS011;13851;43.434;28.338;2022-12-11T03:14:59;33.38;;;18.98;;
26086;SDS011;13851;43.434;28.338;2022-12-11T03:17:34;35.30;;;19.20;;
26086;SDS011;13851;43.434;28.338;2022-12-11T03:20:52;38.47;;;18.95;;
26086;SDS011;13851;43.434;28.338;2022-12-11T03:23:07;36.42;;;19.38;;
26086;SDS011;13851;43.434;28.338;2022-12-11T03:31:01;35.80;;;19.50;;
26086;SDS011;13851;43.434;28.338;2022-12-11T03:33:35;37.92;;;19.13;;
26086;SDS011;13851;43.434;28.338;2022-12-11T03:36:05;37.67;;;18.25;;
26086;SDS011;13851;43.434;28.338;2022-12-11T03:38:35;34.42;;;19.83;;
26086;SDS011;13851;43.434;28.338;2022-12-11T03:41:08;34.75;;;19.08;;
26086;SDS011;13851;43.434;28.338;2022-12-11T03:43:36;38.92;;;18.10;;
26086;SDS011;13851;43.434;28.338;2022-12-11T03:46:05;39.00;;;19.05;;
26086;SDS011;13851;43.434;28.338;2022-12-11T03:48:34;30.35;;;17.60;;
26086;SDS011;13851;43.434;28.338;2022-12-11T03:51:03;27.60;;;15.70;;
26086;SDS011;13851;43.434;28.338;2022-12-11T03:53:30;32.38;;;18.08;;
26086;SDS011;13851;43.434;28.338;2022-12-11T03:55:59;33.63;;;17.95;;
26086;SDS011;13851;43.434;28.338;2022-12-11T03:58:26;38.78;;;19.80;;
26086;SDS011;13851;43.434;28.338;2022-12-11T04:00:54;32.33;;;17.77;;
26086;SDS011;13851;43.434;28.338;2022-12-11T04:03:20;33.28;;;18.08;;
26086;SDS011;13851;43.434;28.338;2022-12-11T04:05:46;33.53;;;17.85;;
26086;SDS011;13851;43.434;28.338;2022-12-11T04:08:16;33.88;;;18.60;;
26086;SDS011;13851;43.434;28.338;2022-12-11T04:10:45;33.47;;;18.60;;
26086;SDS011;13851;43.434;28.338;2022-12-11T04:13:11;38.63;;;19.65;;
26086;SDS011;13851;43.434;28.338;2022-12-11T04:15:37;41.90;;;20.10;;
26086;SDS011;13851;43.434;28.338;2022-12-11T04:18:03;35.03;;;19.77;;
26086;SDS011;13851;43.434;28.338;2022-12-11T04:20:48;43.60;;;20.33;;
26086;SDS011;13851;43.434;28.338;2022-12-11T04:23:32;37.28;;;21.02;;
26086;SDS011;13851;43.434;28.338;2022-12-11T04:26:17;31.75;;;20.38;;
26086;SDS011;13851;43.434;28.338;2022-12-11T04:28:44;40.45;;;21.55;;
26086;SDS011;13851;43.434;28.338;2022-12-11T04:31:11;40.97;;;23.20;;
26086;SDS011;13851;43.434;28.338;2022-12-11T04:33:41;48.65;;;22.45;;
26086;SDS011;13851;43.434;28.338;2022-12-11T04:36:07;45.50;;;23.45;;
26086;SDS011;13851;43.434;28.338;2022-12-11T04:38:34;46.17;;;22.98;;
26086;SDS011;13851;43.434;28.338;2022-12-11T04:41:01;43.15;;;23.27;;
26086;SDS011;13851;43.434;28.338;2022-12-11T04:43:28;42.00;;;22.13;;
26086;SDS011;13851;43.434;28.338;2022-12-11T04:46:01;50.80;;;23.30;;
26086;SDS011;13851;43.434;28.338;2022-12-11T04:48:26;40.72;;;20.58;;
26086;SDS011;13851;43.434;28.338;2022-12-11T04:50:52;37.22;;;20.33;;
26086;SDS011;13851;43.434;28.338;2022-12-11T04:53:17;40.70;;;21.05;;
26086;SDS011;13851;43.434;28.338;2022-12-11T04:55:43;40.33;;;19.63;;
26086;SDS011;13851;43.434;28.338;2022-12-11T04:58:08;41.47;;;22.42;;
26086;SDS011;13851;43.434;28.338;2022-12-11T05:00:34;41.05;;;20.10;;
26086;SDS011;13851;43.434;28.338;2022-12-11T05:02:59;33.72;;;18.88;;
26086;SDS011;13851;43.434;28.338;2022-12-11T05:05:25;40.25;;;19.77;;
26086;SDS011;13851;43.434;28.338;2022-12-11T05:07:50;36.53;;;18.52;;
26086;SDS011;13851;43.434;28.338;2022-12-11T05:10:18;37.58;;;17.98;;
26086;SDS011;13851;43.434;28.338;2022-12-11T05:12:43;40.15;;;17.25;;
26086;SDS011;13851;43.434;28.338;2022-12-11T05:15:09;31.52;;;17.58;;
26086;SDS011;13851;43.434;28.338;2022-12-11T05:17:35;34.90;;;17.15;;
26086;SDS011;13851;43.434;28.338;2022-12-11T05:20:00;38.35;;;17.42;;
26086;SDS011;13851;43.434;28.338;2022-12-11T05:22:25;28.67;;;17.92;;
26086;SDS011;13851;43.434;28.338;2022-12-11T05:24:51;32.20;;;17.92;;
26086;SDS011;13851;43.434;28.338;2022-12-11T05:27:16;35.70;;;19.15;;
26086;SDS011;13851;43.434;28.338;2022-12-11T05:29:45;38.95;;;17.70;;
26086;SDS011;13851;43.434;28.338;2022-12-11T05:32:10;34.17;;;17.98;;
26086;SDS011;13851;43.434;28.338;2022-12-11T05:34:35;37.75;;;17.98;;
26086;SDS011;13851;43.434;28.338;2022-12-11T05:37:01;35.97;;;18.60;;
26086;SDS011;13851;43.434;28.338;2022-12-11T05:39:29;38.70;;;18.48;;
26086;SDS011;13851;43.434;28.338;2022-12-11T05:41:54;32.70;;;18.58;;
26086;SDS011;13851;43.434;28.338;2022-12-11T05:44:20;38.47;;;18.63;;
26086;SDS011;13851;43.434;28.338;2022-12-11T05:46:45;37.42;;;17.80;;
26086;SDS011;13851;43.434;28.338;2022-12-11T05:49:11;33.35;;;18.10;;
26086;SDS011;13851;43.434;28.338;2022-12-11T05:51:39;34.38;;;17.15;;
26086;SDS011;13851;43.434;28.338;2022-12-11T05:54:05;32.15;;;17.27;;
26086;SDS011;13851;43.434;28.338;2022-12-11T05:56:33;46.05;;;18.23;;
26086;SDS011;13851;43.434;28.338;2022-12-11T05:58:59;37.47;;;18.80;;
26086;SDS011;13851;43.434;28.338;2022-12-11T06:01:30;39.83;;;19.75;;
26086;SDS011;13851;43.434;28.338;2022-12-11T06:03:56;38.20;;;20.02;;
26086;SDS011;13851;43.434;28.338;2022-12-11T06:06:23;34.80;;;17.65;;
26086;SDS011;13851;43.434;28.338;2022-12-11T06:08:50;34.67;;;18.83;;
26086;SDS011;13851;43.434;28.338;2022-12-11T06:11:22;36.88;;;18.13;;
26086;SDS011;13851;43.434;28.338;2022-12-11T06:13:50;37.83;;;17.23;;
26086;SDS011;13851;43.434;28.338;2022-12-11T06:16:16;31.70;;;16.77;;
26086;SDS011;13851;43.434;28.338;2022-12-11T06:18:42;30.88;;;17.48;;
26086;SDS011;13851;43.434;28.338;2022-12-11T06:21:24;36.33;;;18.08;;
26086;SDS011;13851;43.434;28.338;2022-12-11T06:23:52;38.13;;;17.52;;
26086;SDS011;13851;43.434;28.338;2022-12-11T06:26:19;33.25;;;16.40;;
26086;SDS011;13851;43.434;28.338;2022-12-11T06:28:46;33.88;;;16.65;;
26086;SDS011;13851;43.434;28.338;2022-12-11T06:31:12;39.28;;;16.45;;
26086;SDS011;13851;43.434;28.338;2022-12-11T06:33:38;33.95;;;16.65;;
26086;SDS011;13851;43.434;28.338;2022-12-11T06:36:05;30.90;;;16.40;;
26086;SDS011;13851;43.434;28.338;2022-12-11T06:38:33;31.98;;;15.27;;
26086;SDS011;13851;43.434;28.338;2022-12-11T06:40:59;31.63;;;14.90;;
26086;SDS011;13851;43.434;28.338;2022-12-11T06:43:28;32.85;;;15.65;;
26086;SDS011;13851;43.434;28.338;2022-12-11T06:45:54;31.98;;;15.32;;
26086;SDS011;13851;43.434;28.338;2022-12-11T06:48:19;37.85;;;16.25;;
26086;SDS011;13851;43.434;28.338;2022-12-11T06:50:47;31.92;;;16.02;;
26086;SDS011;13851;43.434;28.338;2022-12-11T06:53:13;28.75;;;13.95;;
26086;SDS011;13851;43.434;28.338;2022-12-11T06:55:39;31.15;;;15.07;;
26086;SDS011;13851;43.434;28.338;2022-12-11T06:58:06;36.85;;;16.08;;
26086;SDS011;13851;43.434;28.338;2022-12-11T07:00:33;28.48;;;15.05;;
26086;SDS011;13851;43.434;28.338;2022-12-11T07:03:02;33.60;;;15.77;;
26086;SDS011;13851;43.434;28.338;2022-12-11T07:05:29;38.20;;;15.88;;
26086;SDS011;13851;43.434;28.338;2022-12-11T07:07:56;31.42;;;14.40;;
26086;SDS011;13851;43.434;28.338;2022-12-11T07:10:22;27.52;;;15.05;;
26086;SDS011;13851;43.434;28.338;2022-12-11T07:12:48;29.20;;;15.00;;
26086;SDS011;13851;43.434;28.338;2022-12-11T07:15:16;25.45;;;14.07;;
26086;SDS011;13851;43.434;28.338;2022-12-11T07:17:41;35.55;;;15.77;;
26086;SDS011;13851;43.434;28.338;2022-12-11T07:20:07;33.47;;;16.65;;
26086;SDS011;13851;43.434;28.338;2022-12-11T07:22:33;30.30;;;14.93;;
26086;SDS011;13851;43.434;28.338;2022-12-11T07:24:59;36.25;;;16.38;;
26086;SDS011;13851;43.434;28.338;2022-12-11T07:27:24;42.05;;;19.90;;
26086;SDS011;13851;43.434;28.338;2022-12-11T07:29:50;37.50;;;18.13;;
26086;SDS011;13851;43.434;28.338;2022-12-11T07:32:15;43.85;;;19.27;;
26086;SDS011;13851;43.434;28.338;2022-12-11T07:34:41;39.25;;;16.90;;
26086;SDS011;13851;43.434;28.338;2022-12-11T07:37:07;34.70;;;15.63;;
26086;SDS011;13851;43.434;28.338;2022-12-11T07:39:32;35.53;;;16.83;;
26086;SDS011;13851;43.434;28.338;2022-12-11T07:41:58;37.03;;;18.60;;
26086;SDS011;13851;43.434;28.338;2022-12-11T07:44:23;37.63;;;18.45;;
26086;SDS011;13851;43.434;28.338;2022-12-11T07:46:49;33.20;;;15.93;;
26086;SDS011;13851;43.434;28.338;2022-12-11T07:49:14;35.13;;;16.88;;
26086;SDS011;13851;43.434;28.338;2022-12-11T07:51:41;30.65;;;15.65;;
26086;SDS011;13851;43.434;28.338;2022-12-11T07:54:09;29.35;;;16.15;;
26086;SDS011;13851;43.434;28.338;2022-12-11T07:56:38;34.17;;;16.67;;
26086;SDS011;13851;43.434;28.338;2022-12-11T07:59:04;30.85;;;16.15;;
26086;SDS011;13851;43.434;28.338;2022-12-11T08:01:31;30.83;;;15.07;;
26086;SDS011;13851;43.434;28.338;2022-12-11T08:03:59;30.00;;;14.32;;
26086;SDS011;13851;43.434;28.338;2022-12-11T08:06:29;33.05;;;15.73;;
26086;SDS011;13851;43.434;28.338;2022-12-11T08:08:58;31.38;;;15.60;;
26086;SDS011;13851;43.434;28.338;2022-12-11T08:11:24;31.33;;;16.23;;
26086;SDS011;13851;43.434;28.338;2022-12-11T08:13:50;34.08;;;15.45;;
26086;SDS011;13851;43.434;28.338;2022-12-11T08:16:16;35.42;;;16.60;;
26086;SDS011;13851;43.434;28.338;2022-12-11T08:18:43;27.92;;;14.57;;
26086;SDS011;13851;43.434;28.338;2022-12-11T08:21:11;30.05;;;15.18;;
26086;SDS011;13851;43.434;28.338;2022-12-11T08:23:45;34.15;;;15.57;;
26086;SDS011;13851;43.434;28.338;2022-12-11T08:26:14;31.33;;;16.13;;
26086;SDS011;13851;43.434;28.338;2022-12-11T08:28:46;31.33;;;14.48;;
26086;SDS011;13851;43.434;28.338;2022-12-11T08:31:12;36.58;;;16.10;;
26086;SDS011;13851;43.434;28.338;2022-12-11T08:33:38;35.80;;;14.95;;
26086;SDS011;13851;43.434;28.338;2022-12-11T08:36:06;33.25;;;15.07;;
26086;SDS011;13851;43.434;28.338;2022-12-11T08:38:33;30.90;;;15.82;;
26086;SDS011;13851;43.434;28.338;2022-12-11T08:41:06;30.00;;;13.85;;
26086;SDS011;13851;43.434;28.338;2022-12-11T08:43:40;30.00;;;14.35;;
26086;SDS011;13851;43.434;28.338;2022-12-11T08:46:06;33.80;;;14.48;;
26086;SDS011;13851;43.434;28.338;2022-12-11T08:48:32;31.17;;;14.40;;
26086;SDS011;13851;43.434;28.338;2022-12-11T08:51:03;34.97;;;14.93;;
26086;SDS011;13851;43.434;28.338;2022-12-11T08:53:30;35.25;;;15.40;;
26086;SDS011;13851;43.434;28.338;2022-12-11T08:56:06;40.50;;;14.30;;
26086;SDS011;13851;43.434;28.338;2022-12-11T08:58:36;34.08;;;15.80;;
26086;SDS011;13851;43.434;28.338;2022-12-11T09:01:09;28.92;;;15.98;;
26086;SDS011;13851;43.434;28.338;2022-12-11T09:03:36;39.85;;;16.42;;
26086;SDS011;13851;43.434;28.338;2022-12-11T09:06:12;34.80;;;16.98;;
26086;SDS011;13851;43.434;28.338;2022-12-11T09:08:40;33.85;;;16.83;;
26086;SDS011;13851;43.434;28.338;2022-12-11T09:11:07;36.95;;;16.73;;
26086;SDS011;13851;43.434;28.338;2022-12-11T09:13:38;29.88;;;16.13;;
26086;SDS011;13851;43.434;28.338;2022-12-11T09:16:05;38.88;;;18.05;;
26086;SDS011;13851;43.434;28.338;2022-12-11T09:18:31;35.80;;;16.55;;
26086;SDS011;13851;43.434;28.338;2022-12-11T09:21:03;34.40;;;16.73;;
26086;SDS011;13851;43.434;28.338;2022-12-11T09:23:31;33.05;;;15.50;;
26086;SDS011;13851;43.434;28.338;2022-12-11T09:25:57;38.88;;;16.35;;
26086;SDS011;13851;43.434;28.338;2022-12-11T09:28:23;35.47;;;15.50;;
26086;SDS011;13851;43.434;28.338;2022-12-11T09:30:49;35.08;;;15.35;;
26086;SDS011;13851;43.434;28.338;2022-12-11T09:33:15;37.95;;;15.93;;
26086;SDS011;13851;43.434;28.338;2022-12-11T09:35:41;38.92;;;16.80;;
26086;SDS011;13851;43.434;28.338;2022-12-11T09:38:07;34.75;;;17.85;;
26086;SDS011;13851;43.434;28.338;2022-12-11T09:40:33;39.92;;;17.60;;
26086;SDS011;13851;43.434;28.338;2022-12-11T09:45:46;35.65;;;18.05;;
26086;SDS011;13851;43.434;28.338;2022-12-11T09:48:19;41.85;;;18.13;;
26086;SDS011;13851;43.434;28.338;2022-12-11T09:50:49;35.05;;;15.23;;
26086;SDS011;13851;43.434;28.338;2022-12-11T09:53:20;36.13;;;15.88;;
26086;SDS011;13851;43.434;28.338;2022-12-11T09:56:20;33.60;;;16.50;;
26086;SDS011;13851;43.434;28.338;2022-12-11T09:59:07;39.65;;;17.55;;
26086;SDS011;13851;43.434;28.338;2022-12-11T10:18:02;43.53;;;19.13;;
26086;SDS011;13851;43.434;28.338;2022-12-11T10:20:35;43.75;;;18.70;;
26086;SDS011;13851;43.434;28.338;2022-12-11T10:23:08;35.55;;;18.38;;
26086;SDS011;13851;43.434;28.338;2022-12-11T10:25:46;37.08;;;18.20;;
26086;SDS011;13851;43.434;28.338;2022-12-11T10:28:17;38.70;;;18.52;;
26086;SDS011;13851;43.434;28.338;2022-12-11T10:30:50;43.58;;;19.67;;
26086;SDS011;13851;43.434;28.338;2022-12-11T10:33:26;39.63;;;20.38;;
26086;SDS011;13851;43.434;28.338;2022-12-11T10:35:57;42.13;;;19.20;;
26086;SDS011;13851;43.434;28.338;2022-12-11T10:40:59;35.42;;;18.88;;
26086;SDS011;13851;43.434;28.338;2022-12-11T10:43:35;44.95;;;19.85;;
26086;SDS011;13851;43.434;28.338;2022-12-11T10:46:13;41.17;;;19.73;;
26086;SDS011;13851;43.434;28.338;2022-12-11T10:48:45;39.67;;;19.80;;
26086;SDS011;13851;43.434;28.338;2022-12-11T10:51:17;46.20;;;21.25;;
26086;SDS011;13851;43.434;28.338;2022-12-11T10:53:49;46.10;;;21.45;;
26086;SDS011;13851;43.434;28.338;2022-12-11T10:56:23;39.75;;;22.17;;
26086;SDS011;13851;43.434;28.338;2022-12-11T10:58:50;40.55;;;21.80;;
26086;SDS011;13851;43.434;28.338;2022-12-11T11:01:18;43.15;;;21.77;;
26086;SDS011;13851;43.434;28.338;2022-12-11T11:06:31;42.17;;;20.73;;
26086;SDS011;13851;43.434;28.338;2022-12-11T11:09:02;44.05;;;22.45;;
26086;SDS011;13851;43.434;28.338;2022-12-11T11:11:29;44.90;;;23.17;;
26086;SDS011;13851;43.434;28.338;2022-12-11T11:14:29;37.45;;;21.92;;
26086;SDS011;13851;43.434;28.338;2022-12-11T11:16:51;48.28;;;22.55;;
26086;SDS011;13851;43.434;28.338;2022-12-11T11:19:30;41.45;;;23.08;;
26086;SDS011;13851;43.434;28.338;2022-12-11T11:21:58;49.00;;;23.77;;
26086;SDS011;13851;43.434;28.338;2022-12-11T11:24:28;44.95;;;25.45;;
26086;SDS011;13851;43.434;28.338;2022-12-11T11:26:58;44.38;;;23.52;;
26086;SDS011;13851;43.434;28.338;2022-12-11T11:29:26;43.03;;;22.88;;
26086;SDS011;13851;43.434;28.338;2022-12-11T11:32:12;41.50;;;22.08;;
26086;SDS011;13851;43.434;28.338;2022-12-11T11:34:42;44.47;;;22.40;;
26086;SDS011;13851;43.434;28.338;2022-12-11T11:37:21;44.35;;;23.05;;
26086;SDS011;13851;43.434;28.338;2022-12-11T11:39:49;44.28;;;20.42;;
26086;SDS011;13851;43.434;28.338;2022-12-11T11:42:29;39.75;;;18.33;;
26086;SDS011;13851;43.434;28.338;2022-12-11T11:45:22;45.10;;;20.60;;
26086;SDS011;13851;43.434;28.338;2022-12-11T11:51:23;33.22;;;17.95;;
26086;SDS011;13851;43.434;28.338;2022-12-11T11:53:59;36.88;;;18.90;;
26086;SDS011;13851;43.434;28.338;2022-12-11T11:56:30;38.03;;;18.90;;
26086;SDS011;13851;43.434;28.338;2022-12-11T11:59:06;46.58;;;20.27;;
26086;SDS011;13851;43.434;28.338;2022-12-11T12:01:56;45.28;;;20.90;;
26086;SDS011;13851;43.434;28.338;2022-12-11T12:04:22;41.03;;;20.85;;
26086;SDS011;13851;43.434;28.338;2022-12-11T12:23:28;47.75;;;24.92;;
26086;SDS011;13851;43.434;28.338;2022-12-11T12:39:11;43.47;;;21.10;;
26086;SDS011;13851;43.434;28.338;2022-12-11T12:47:49;33.03;;;14.68;;
26086;SDS011;13851;43.434;28.338;2022-12-11T12:50:16;39.97;;;15.73;;
26086;SDS011;13851;43.434;28.338;2022-12-11T12:52:45;37.83;;;15.85;;
26086;SDS011;13851;43.434;28.338;2022-12-11T12:57:44;39.92;;;14.85;;
26086;SDS011;13851;43.434;28.338;2022-12-11T13:02:56;35.65;;;15.55;;
26086;SDS011;13851;43.434;28.338;2022-12-11T13:05:26;37.35;;;13.73;;
26086;SDS011;13851;43.434;28.338;2022-12-11T13:07:58;35.78;;;12.65;;
26086;SDS011;13851;43.434;28.338;2022-12-11T13:10:30;33.53;;;12.15;;
26086;SDS011;13851;43.434;28.338;2022-12-11T13:13:01;32.97;;;14.55;;
26086;SDS011;13851;43.434;28.338;2022-12-11T13:15:38;43.20;;;17.23;;
26086;SDS011;13851;43.434;28.338;2022-12-11T13:20:54;44.33;;;15.82;;
26086;SDS011;13851;43.434;28.338;2022-12-11T13:23:30;41.35;;;14.23;;
26086;SDS011;13851;43.434;28.338;2022-12-11T13:25:58;48.10;;;18.35;;
26086;SDS011;13851;43.434;28.338;2022-12-11T13:31:05;48.63;;;17.15;;
26086;SDS011;13851;43.434;28.338;2022-12-11T13:33:44;40.50;;;16.95;;
26086;SDS011;13851;43.434;28.338;2022-12-11T13:38:43;48.28;;;17.25;;
26086;SDS011;13851;43.434;28.338;2022-12-11T13:41:11;44.05;;;16.83;;
26086;SDS011;13851;43.434;28.338;2022-12-11T13:43:37;42.97;;;17.02;;
26086;SDS011;13851;43.434;28.338;2022-12-11T13:46:09;50.55;;;18.65;;
26086;SDS011;13851;43.434;28.338;2022-12-11T13:48:42;39.08;;;17.23;;
26086;SDS011;13851;43.434;28.338;2022-12-11T13:51:15;43.70;;;17.17;;
26086;SDS011;13851;43.434;28.338;2022-12-11T13:53:42;38.05;;;18.20;;
26086;SDS011;13851;43.434;28.338;2022-12-11T13:56:18;39.85;;;18.25;;
26086;SDS011;13851;43.434;28.338;2022-12-11T13:58:46;40.72;;;18.52;;
26086;SDS011;13851;43.434;28.338;2022-12-11T14:01:19;48.45;;;20.17;;
26086;SDS011;13851;43.434;28.338;2022-12-11T14:06:24;41.08;;;19.10;;
26086;SDS011;13851;43.434;28.338;2022-12-11T14:08:53;43.83;;;19.15;;
26086;SDS011;13851;43.434;28.338;2022-12-11T14:11:26;42.20;;;18.63;;
26086;SDS011;13851;43.434;28.338;2022-12-11T14:13:54;44.58;;;19.05;;
26086;SDS011;13851;43.434;28.338;2022-12-11T14:16:24;41.50;;;19.75;;
26086;SDS011;13851;43.434;28.338;2022-12-11T14:18:51;43.50;;;20.52;;
26086;SDS011;13851;43.434;28.338;2022-12-11T14:21:20;42.97;;;19.67;;
26086;SDS011;13851;43.434;28.338;2022-12-11T14:23:54;45.88;;;18.98;;
26086;SDS011;13851;43.434;28.338;2022-12-11T14:26:23;38.75;;;17.55;;
26086;SDS011;13851;43.434;28.338;2022-12-11T14:28:50;41.65;;;16.38;;
26086;SDS011;13851;43.434;28.338;2022-12-11T14:36:40;36.75;;;13.57;;
26086;SDS011;13851;43.434;28.338;2022-12-11T14:39:10;41.13;;;14.48;;
26086;SDS011;13851;43.434;28.338;2022-12-11T14:44:13;31.55;;;11.95;;
26086;SDS011;13851;43.434;28.338;2022-12-11T14:46:45;40.72;;;14.57;;
26086;SDS011;13851;43.434;28.338;2022-12-11T14:49:19;37.67;;;13.48;;
26086;SDS011;13851;43.434;28.338;2022-12-11T14:51:55;40.53;;;13.32;;
26086;SDS011;13851;43.434;28.338;2022-12-11T14:54:26;31.85;;;11.02;;
26086;SDS011;13851;43.434;28.338;2022-12-11T14:56:56;35.72;;;12.43;;
26086;SDS011;13851;43.434;28.338;2022-12-11T14:59:24;38.25;;;11.85;;
26086;SDS011;13851;43.434;28.338;2022-12-11T15:02:00;31.52;;;11.90;;
26086;SDS011;13851;43.434;28.338;2022-12-11T15:04:42;45.65;;;14.02;;
26086;SDS011;13851;43.434;28.338;2022-12-11T15:07:21;43.60;;;15.43;;
26086;SDS011;13851;43.434;28.338;2022-12-11T15:09:49;36.72;;;12.23;;
26086;SDS011;13851;43.434;28.338;2022-12-11T15:12:16;35.00;;;14.48;;
26086;SDS011;13851;43.434;28.338;2022-12-11T15:14:47;41.17;;;14.48;;
26086;SDS011;13851;43.434;28.338;2022-12-11T15:17:22;46.80;;;21.02;;
26086;SDS011;13851;43.434;28.338;2022-12-11T15:19:54;39.72;;;15.13;;
26086;SDS011;13851;43.434;28.338;2022-12-11T15:22:32;46.83;;;15.77;;
26086;SDS011;13851;43.434;28.338;2022-12-11T15:24:58;56.10;;;21.75;;
26086;SDS011;13851;43.434;28.338;2022-12-11T15:27:35;46.92;;;18.52;;
26086;SDS011;13851;43.434;28.338;2022-12-11T15:33:00;38.90;;;13.00;;
26086;SDS011;13851;43.434;28.338;2022-12-11T15:35:27;42.70;;;15.20;;
26086;SDS011;13851;43.434;28.338;2022-12-11T15:37:53;48.72;;;14.98;;
26086;SDS011;13851;43.434;28.338;2022-12-11T15:40:22;46.20;;;16.37;;
26086;SDS011;13851;43.434;28.338;2022-12-11T15:42:49;39.90;;;14.10;;
26086;SDS011;13851;43.434;28.338;2022-12-11T15:45:20;44.53;;;16.17;;
26086;SDS011;13851;43.434;28.338;2022-12-11T15:47:48;43.67;;;16.25;;
26086;SDS011;13851;43.434;28.338;2022-12-11T15:52:45;51.30;;;19.35;;
26086;SDS011;13851;43.434;28.338;2022-12-11T15:55:12;47.28;;;17.92;;
26086;SDS011;13851;43.434;28.338;2022-12-11T15:57:39;44.33;;;15.43;;
26086;SDS011;13851;43.434;28.338;2022-12-11T16:00:12;51.10;;;16.85;;
26086;SDS011;13851;43.434;28.338;2022-12-11T16:02:43;45.42;;;17.20;;
26086;SDS011;13851;43.434;28.338;2022-12-11T16:05:09;45.38;;;18.10;;
26086;SDS011;13851;43.434;28.338;2022-12-11T16:07:34;35.42;;;11.10;;
26086;SDS011;13851;43.434;28.338;2022-12-11T16:10:00;32.75;;;8.57;;
26086;SDS011;13851;43.434;28.338;2022-12-11T16:12:25;29.40;;;8.80;;
26086;SDS011;13851;43.434;28.338;2022-12-11T16:14:51;30.42;;;9.00;;
26086;SDS011;13851;43.434;28.338;2022-12-11T16:17:16;32.45;;;9.70;;